Time;durP1;ratioP1;P1;durP2;ratioP2;P2;SDS_P1;SDS_P2;PMS_P1;PMS_P2;Temp;Humidity;BMP_temperature;BMP_pressure;BME280_temperature;BME280_humidity;BME280_pressure;Samples;Min_cycle;Max_cycle;Signal;HPM_P1;HPM_P2
2023/04/11 00:00:57;;;;;;;23.98;4.15;;;;;;;8.08;nan;100714.19;4999018;28;20030;-43
2023/04/11 00:03:22;;;;;;;18.58;4.25;;;;;;;8.13;nan;100714.06;4998604;28;20070;-44
2023/04/11 00:05:48;;;;;;;20.23;4.38;;;;;;;8.18;nan;100718.31;5013722;28;20037;-45
2023/04/11 00:08:13;;;;;;;22.80;5.00;;;;;;;8.27;nan;100712.88;4999225;28;20555;-44
2023/04/11 00:10:38;;;;;;;17.02;3.83;;;;;;;8.33;nan;100717.09;5015410;28;20038;-49
2023/04/11 00:13:05;;;;;;;26.58;4.35;;;;;;;8.07;nan;100667.91;5018600;28;20041;-46
2023/04/11 00:15:31;;;;;;;21.45;4.47;;;;;;;8.30;nan;100714.53;5018478;28;20033;-45
2023/04/11 00:17:57;;;;;;;24.90;5.22;;;;;;;8.40;nan;100727.41;5018682;28;20564;-42
2023/04/11 00:20:22;;;;;;;20.27;3.85;;;;;;;8.40;nan;100721.28;5018422;28;20061;-46
2023/04/11 00:22:48;;;;;;;19.20;4.15;;;;;;;8.13;nan;100675.63;5000860;28;20065;-46
2023/04/11 00:25:14;;;;;;;16.08;4.18;;;;;;;8.48;nan;100711.47;5017707;28;20459;-43
2023/04/11 00:27:39;;;;;;;16.60;3.83;;;;;;;8.28;nan;100687.50;5017210;28;20034;-41
2023/04/11 00:30:06;;;;;;;15.07;4.15;;;;;;;8.58;nan;100731.28;5017072;28;20037;-42
2023/04/11 00:32:32;;;;;;;18.33;3.95;;;;;;;8.52;nan;100722.75;5018381;28;20072;-43
2023/04/11 00:34:58;;;;;;;18.45;4.15;;;;;;;8.21;nan;100676.28;5018411;28;20062;-42
2023/04/11 00:37:23;;;;;;;20.05;4.32;;;;;;;8.58;nan;100736.53;5016602;28;20536;-47
2023/04/11 00:39:51;;;;;;;12.70;3.70;;;;;;;8.63;nan;100747.81;5014988;28;20037;-42
2023/04/11 00:42:18;;;;;;;11.82;3.00;;;;;;;8.26;nan;100687.50;5013173;28;20085;-45
2023/04/11 00:44:43;;;;;;;13.68;2.83;;;;;;;8.65;nan;100747.75;5015383;28;20026;-43
2023/04/11 00:47:08;;;;;;;11.10;3.10;;;;;;;8.71;nan;100748.47;5014041;28;20040;-46
2023/04/11 00:49:34;;;;;;;12.30;2.88;;;;;;;8.44;nan;100697.56;5013565;28;20042;-49
2023/04/11 00:52:00;;;;;;;14.57;2.90;;;;;;;8.65;nan;100735.50;5013995;28;20396;-43
2023/04/11 00:54:28;;;;;;;8.30;3.00;;;;;;;8.70;nan;100738.00;5015174;28;20034;-45
2023/04/11 00:56:56;;;;;;;16.08;3.25;;;;;;;8.79;nan;100758.75;5015117;28;20137;-43
2023/04/11 00:59:22;;;;;;;8.00;2.50;;;;;;;8.63;nan;100726.81;5005062;28;20081;-42
2023/04/11 01:01:48;;;;;;;17.17;3.00;;;;;;;8.78;nan;100750.03;4995124;28;20290;-45
2023/04/11 01:04:16;;;;;;;10.85;2.78;;;;;;;8.51;nan;100714.00;4995225;28;20042;-44
2023/04/11 01:06:43;;;;;;;10.32;2.78;;;;;;;8.54;nan;100708.69;4995226;28;20085;-42
2023/04/11 01:09:08;;;;;;;19.15;3.15;;;;;;;8.53;nan;100704.31;5010374;28;20042;-45
2023/04/11 01:11:34;;;;;;;11.50;2.58;;;;;;;8.85;nan;100780.44;4994942;28;20042;-46
2023/04/11 01:13:59;;;;;;;7.50;2.17;;;;;;;8.49;nan;100711.41;5010256;28;20426;-46
2023/04/11 01:16:25;;;;;;;11.90;2.70;;;;;;;8.86;nan;100757.69;4994464;28;20038;-49
2023/04/11 01:18:51;;;;;;;9.23;2.25;;;;;;;8.91;nan;100755.78;5010152;28;20034;-45
2023/04/11 01:21:18;;;;;;;8.82;2.42;;;;;;;8.60;nan;100716.41;5009887;28;20084;-44
2023/04/11 01:23:43;;;;;;;10.55;2.00;;;;;;;8.61;nan;100712.03;4995298;28;20054;-42
2023/04/11 01:26:08;;;;;;;10.82;2.03;;;;;;;8.88;nan;100775.13;4994828;28;20465;-42
2023/04/11 01:28:34;;;;;;;11.45;2.85;;;;;;;8.89;nan;100774.22;5009932;28;20405;-47
2023/04/11 01:30:59;;;;;;;10.20;2.80;;;;;;;8.82;nan;100775.28;4994377;28;20398;-44
2023/04/11 01:33:24;;;;;;;10.77;2.78;;;;;;;8.75;nan;100773.72;4994756;28;20038;-45
2023/04/11 01:35:50;;;;;;;11.90;3.00;;;;;;;8.46;nan;100732.47;4994922;28;20193;-49
2023/04/11 01:38:15;;;;;;;20.33;3.55;;;;;;;8.58;nan;100769.81;4994790;28;20038;-43
2023/04/11 01:40:40;;;;;;;7.80;1.95;;;;;;;8.48;nan;100759.56;4994499;28;20455;-42
2023/04/11 01:43:08;;;;;;;11.90;2.22;;;;;;;8.52;nan;100775.22;4994347;28;20046;-44
2023/04/11 01:45:33;;;;;;;12.05;2.70;;;;;;;8.19;nan;100734.91;4994512;28;20544;-46
2023/04/11 01:47:59;;;;;;;10.68;2.75;;;;;;;8.45;nan;100782.38;5002027;28;20046;-44
2023/04/11 01:50:24;;;;;;;11.23;2.38;;;;;;;7.96;nan;100709.25;5014049;28;20072;-44
2023/04/11 01:52:50;;;;;;;12.65;3.25;;;;;;;7.97;nan;100736.31;5012591;28;20034;-43
2023/04/11 01:55:16;;;;;;;11.88;2.38;;;;;;;8.23;nan;100791.63;5013798;28;20030;-46
2023/04/11 01:57:41;;;;;;;13.13;2.42;;;;;;;8.13;nan;100777.00;5013875;28;20041;-42
2023/04/11 02:00:10;;;;;;;13.75;2.97;;;;;;;8.15;nan;100791.78;5012397;28;20061;-45
2023/04/11 02:02:36;;;;;;;10.38;2.67;;;;;;;7.93;nan;100749.50;5012436;28;20048;-43
2023/04/11 02:05:02;;;;;;;10.27;2.25;;;;;;;8.14;nan;100790.09;5011442;28;20076;-45
2023/04/11 02:07:27;;;;;;;14.65;2.75;;;;;;;8.25;nan;100808.19;4994437;28;20069;-45
2023/04/11 02:09:53;;;;;;;14.80;2.80;;;;;;;8.29;nan;100810.72;5008981;28;20245;-47
2023/04/11 02:12:18;;;;;;;17.48;4.10;;;;;;;8.32;nan;100786.16;4994056;28;20506;-45
2023/04/11 02:14:45;;;;;;;16.80;3.20;;;;;;;8.41;nan;100815.66;4993862;28;20059;-43
2023/04/11 02:17:11;;;;;;;11.85;2.92;;;;;;;8.47;nan;100815.53;4992746;28;20509;-46
2023/04/11 02:19:39;;;;;;;16.92;4.05;;;;;;;8.17;nan;100750.66;4992461;28;20117;-43
2023/04/11 02:22:08;;;;;;;15.85;3.35;;;;;;;8.49;nan;100805.84;4993806;28;20034;-45
2023/04/11 02:24:33;;;;;;;17.83;3.38;;;;;;;8.24;nan;100761.88;5009478;28;20030;-42
2023/04/11 02:27:00;;;;;;;13.65;2.90;;;;;;;8.23;nan;100745.25;5013170;28;20036;-53
2023/04/11 02:29:26;;;;;;;12.98;2.78;;;;;;;8.40;nan;100785.13;5011393;28;20437;-44
2023/04/11 02:31:51;;;;;;;11.82;2.85;;;;;;;8.52;nan;100825.06;5012824;28;20069;-45
2023/04/11 02:34:16;;;;;;;14.85;2.67;;;;;;;8.42;nan;100821.78;5013462;28;20030;-44
2023/04/11 02:36:42;;;;;;;11.20;2.33;;;;;;;8.33;nan;100822.00;5013206;28;20088;-49
2023/04/11 02:39:08;;;;;;;13.43;2.65;;;;;;;7.97;nan;100778.25;5013203;28;20037;-44
2023/04/11 02:41:33;;;;;;;9.05;2.28;;;;;;;7.88;nan;100769.69;5011745;28;20176;-41
2023/04/11 02:43:59;;;;;;;12.38;3.00;;;;;;;8.19;nan;100831.91;5012152;28;20062;-44
2023/04/11 02:46:24;;;;;;;12.77;2.90;;;;;;;7.84;nan;100780.28;5013262;28;20069;-42
2023/04/11 02:48:50;;;;;;;10.27;2.42;;;;;;;7.94;nan;100821.97;5013201;28;20048;-45
2023/04/11 02:51:15;;;;;;;11.77;3.22;;;;;;;7.91;nan;100826.41;5012981;28;20493;-49
2023/04/11 02:53:40;;;;;;;17.90;3.38;;;;;;;7.50;nan;100779.28;5012999;28;20370;-45
2023/04/11 02:56:09;;;;;;;15.50;3.28;;;;;;;7.52;nan;100780.09;5011447;28;20030;-44
2023/04/11 02:58:37;;;;;;;13.27;3.60;;;;;;;7.84;nan;100856.28;5011581;28;20089;-44
2023/04/11 03:01:05;;;;;;;15.40;3.65;;;;;;;7.87;nan;100830.00;4994622;28;20035;-42
2023/04/11 03:03:30;;;;;;;16.80;3.30;;;;;;;7.70;nan;100801.56;4993272;28;20073;-43
2023/04/11 03:05:55;;;;;;;10.40;2.50;;;;;;;7.58;nan;100795.69;4993269;28;20062;-48
2023/04/11 03:08:21;;;;;;;12.85;3.72;;;;;;;7.82;nan;100837.13;4993320;28;20496;-48
2023/04/11 03:10:46;;;;;;;13.80;2.60;;;;;;;7.78;nan;100841.53;4992916;28;20041;-45
2023/04/11 03:13:11;;;;;;;14.68;2.80;;;;;;;7.75;nan;100843.34;4992895;28;20030;-48
2023/04/11 03:15:37;;;;;;;10.70;2.63;;;;;;;7.76;nan;100853.78;4991756;28;20034;-47
2023/04/11 03:18:02;;;;;;;9.45;2.42;;;;;;;7.48;nan;100794.16;4992714;28;20073;-44
2023/04/11 03:20:27;;;;;;;11.43;1.92;;;;;;;7.78;nan;100864.25;5008219;28;20038;-44
2023/04/11 03:22:53;;;;;;;13.45;2.67;;;;;;;7.81;nan;100861.56;4992903;28;20088;-48
2023/04/11 03:25:18;;;;;;;16.25;3.17;;;;;;;7.78;nan;100852.03;4992895;28;20045;-44
2023/04/11 03:27:44;;;;;;;12.90;3.58;;;;;;;7.75;nan;100852.09;4992978;28;20030;-45
2023/04/11 03:30:10;;;;;;;8.18;2.25;;;;;;;7.70;nan;100853.09;4991444;28;20061;-45
2023/04/11 03:32:35;;;;;;;14.27;3.15;;;;;;;7.68;nan;100862.72;4992959;28;20030;-44
2023/04/11 03:35:00;;;;;;;11.63;2.67;;;;;;;7.64;nan;100882.03;4995454;28;20427;-43
2023/04/11 03:37:26;;;;;;;11.60;2.38;;;;;;;7.62;nan;100889.03;5012609;28;20037;-49
2023/04/11 03:39:51;;;;;;;16.20;2.45;;;;;;;7.62;nan;100879.41;5011887;28;20406;-43
2023/04/11 03:42:17;;;;;;;11.98;2.45;;;;;;;7.63;nan;100890.75;5012526;28;20065;-49
2023/04/11 03:44:42;;;;;;;13.23;2.50;;;;;;;7.56;nan;100884.78;5011181;28;20061;-46
2023/04/11 03:47:07;;;;;;;8.95;2.17;;;;;;;7.25;nan;100831.25;5012546;28;20036;-47
2023/04/11 03:49:33;;;;;;;9.95;2.17;;;;;;;7.49;nan;100887.56;5012363;28;20394;-44
2023/04/11 03:51:58;;;;;;;14.20;1.85;;;;;;;7.46;nan;100892.84;5009415;28;20049;-44
2023/04/11 03:54:23;;;;;;;8.75;2.17;;;;;;;7.02;nan;100822.97;4992770;28;20038;-42
2023/04/11 03:56:49;;;;;;;10.10;2.70;;;;;;;7.29;nan;100887.94;4992557;28;20482;-45
2023/04/11 03:59:14;;;;;;;8.88;2.13;;;;;;;7.34;nan;100902.66;4992587;28;20517;-41
2023/04/11 04:01:39;;;;;;;7.22;2.00;;;;;;;7.29;nan;100914.97;4992403;28;20398;-43
2023/04/11 04:04:06;;;;;;;9.82;1.90;;;;;;;6.83;nan;100834.66;4992691;28;20437;-43
2023/04/11 04:06:31;;;;;;;9.32;2.00;;;;;;;7.22;nan;100910.72;5007533;28;20034;-47
2023/04/11 04:08:58;;;;;;;7.75;1.77;;;;;;;7.11;nan;100902.22;5016898;28;20473;-44
2023/04/11 04:11:24;;;;;;;9.27;2.20;;;;;;;7.00;nan;100896.28;4992371;28;20046;-44
2023/04/11 04:13:49;;;;;;;5.65;1.75;;;;;;;7.07;nan;100904.88;4993468;28;20038;-48
2023/04/11 04:16:16;;;;;;;9.95;2.45;;;;;;;7.21;nan;100939.53;4995809;28;20088;-48
2023/04/11 04:18:41;;;;;;;8.18;1.83;;;;;;;7.19;nan;100934.34;4995063;28;20038;-42
2023/04/11 04:21:07;;;;;;;10.82;2.03;;;;;;;6.83;nan;100879.97;4996117;28;20122;-44
2023/04/11 04:23:32;;;;;;;11.38;2.05;;;;;;;6.90;nan;100881.63;4995525;28;20041;-47
2023/04/11 04:26:00;;;;;;;12.68;2.10;;;;;;;7.19;nan;100928.25;4996014;28;20069;-44
2023/04/11 04:28:26;;;;;;;13.38;2.25;;;;;;;7.16;nan;100937.00;4996319;28;20042;-48
2023/04/11 04:30:53;;;;;;;6.22;1.90;;;;;;;7.18;nan;100931.75;5012437;28;20050;-48
2023/04/11 04:33:21;;;;;;;9.55;2.05;;;;;;;7.03;nan;100911.06;5021777;28;20469;-45
2023/04/11 04:35:47;;;;;;;10.02;1.63;;;;;;;6.82;nan;100886.13;5018991;28;20053;-47
2023/04/11 04:38:16;;;;;;;8.05;2.20;;;;;;;7.17;nan;100954.47;5014031;28;20515;-42
2023/04/11 04:40:42;;;;;;;11.20;2.67;;;;;;;7.11;nan;100938.84;5015192;28;20044;-48
2023/04/11 04:43:10;;;;;;;11.13;2.55;;;;;;;7.17;nan;100946.59;4997673;28;20388;-43
2023/04/11 04:45:35;;;;;;;10.13;2.22;;;;;;;7.16;nan;100941.38;5015501;28;20088;-45
2023/04/11 04:48:01;;;;;;;13.13;3.42;;;;;;;7.27;nan;100963.00;5025189;28;20045;-46
2023/04/11 04:50:26;;;;;;;9.95;2.60;;;;;;;6.98;nan;100912.88;5024959;28;20061;-46
2023/04/11 04:52:52;;;;;;;12.68;2.50;;;;;;;7.32;nan;100951.59;5015461;28;20033;-43
2023/04/11 04:55:17;;;;;;;10.05;1.98;;;;;;;7.33;nan;100971.63;5013843;28;20037;-44
2023/04/11 04:57:42;;;;;;;12.82;2.40;;;;;;;7.42;nan;100951.41;5030546;28;20030;-48
2023/04/11 05:00:10;;;;;;;10.43;2.15;;;;;;;7.44;nan;100967.97;5014914;28;20040;-47
2023/04/11 05:02:36;;;;;;;10.68;2.33;;;;;;;7.38;nan;100964.53;5014377;28;20500;-44
2023/04/11 05:05:03;;;;;;;15.35;2.88;;;;;;;7.42;nan;100967.09;5013806;28;20033;-47
2023/04/11 05:07:28;;;;;;;6.90;2.03;;;;;;;7.21;nan;100911.59;5015033;28;20044;-45
2023/04/11 05:09:54;;;;;;;11.15;2.95;;;;;;;7.57;nan;100974.69;5006960;28;20408;-40
2023/04/11 05:12:25;;;;;;;15.07;2.70;;;;;;;7.34;nan;100934.09;5017796;28;20536;-46
2023/04/11 05:14:51;;;;;;;11.93;2.30;;;;;;;7.26;nan;100915.03;4994282;28;20039;-43
2023/04/11 05:17:17;;;;;;;12.50;2.45;;;;;;;7.29;nan;100943.78;4996279;28;20058;-46
2023/04/11 05:19:42;;;;;;;8.75;2.08;;;;;;;7.58;nan;100993.03;5009215;28;20089;-43
2023/04/11 05:22:08;;;;;;;11.93;2.53;;;;;;;7.59;nan;100965.09;5019180;28;20044;-41
2023/04/11 05:24:33;;;;;;;12.75;2.95;;;;;;;7.71;nan;101002.38;5001938;28;20104;-44
2023/04/11 05:26:59;;;;;;;18.48;3.30;;;;;;;7.68;nan;100984.09;5014338;28;20389;-45
2023/04/11 05:29:24;;;;;;;11.48;2.70;;;;;;;7.35;nan;100941.03;5012226;28;20474;-45
2023/04/11 05:31:51;;;;;;;13.63;3.67;;;;;;;7.67;nan;100992.00;5014255;28;20348;-45
2023/04/11 05:34:16;;;;;;;14.95;3.83;;;;;;;7.70;nan;100991.94;5014421;28;20046;-44
2023/04/11 05:36:41;;;;;;;14.95;2.83;;;;;;;7.67;nan;100990.25;5014226;28;20496;-44
2023/04/11 05:39:07;;;;;;;13.35;3.60;;;;;;;7.49;nan;100977.47;5027746;28;20044;-42
2023/04/11 05:41:32;;;;;;;15.18;2.78;;;;;;;7.77;nan;100999.66;4993495;28;20120;-43
2023/04/11 05:43:57;;;;;;;10.20;2.40;;;;;;;7.54;nan;100959.91;5013250;28;20121;-43
2023/04/11 05:46:23;;;;;;;11.30;2.30;;;;;;;7.81;nan;101014.44;5012858;28;20109;-43
2023/04/11 05:48:48;;;;;;;17.13;3.00;;;;;;;7.79;nan;101020.59;5013336;28;20444;-45
2023/04/11 05:51:13;;;;;;;8.77;2.20;;;;;;;7.81;nan;101024.06;5011581;28;20116;-43
2023/04/11 05:53:39;;;;;;;13.95;2.85;;;;;;;7.75;nan;101008.44;5012709;28;20048;-46
2023/04/11 05:56:05;;;;;;;11.63;2.97;;;;;;;7.87;nan;101029.19;4998806;28;20034;-43
2023/04/11 05:58:30;;;;;;;10.45;2.80;;;;;;;7.91;nan;101029.09;4997108;28;20084;-43
2023/04/11 06:00:58;;;;;;;13.07;2.85;;;;;;;7.90;nan;101014.28;5013844;28;20030;-51
2023/04/11 06:03:23;;;;;;;9.63;2.47;;;;;;;7.73;nan;100989.25;5011611;28;20513;-44
2023/04/11 06:05:49;;;;;;;12.02;2.80;;;;;;;8.07;nan;101036.66;5028782;28;20060;-44
2023/04/11 06:08:14;;;;;;;22.23;3.95;;;;;;;8.03;nan;101028.00;4997290;28;20042;-44
2023/04/11 06:10:40;;;;;;;11.88;2.50;;;;;;;8.09;nan;101020.00;5004557;28;20038;-44
2023/04/11 06:13:05;;;;;;;11.63;2.80;;;;;;;8.00;nan;101003.63;4999873;28;20046;-44
2023/04/11 06:15:31;;;;;;;19.23;2.72;;;;;;;8.32;nan;101054.53;4992527;28;20085;-42
2023/04/11 06:17:56;;;;;;;12.00;2.80;;;;;;;7.98;nan;100989.66;5011678;28;20036;-45
2023/04/11 06:20:22;;;;;;;10.85;2.72;;;;;;;8.30;nan;101052.84;5013518;28;20061;-46
2023/04/11 06:22:50;;;;;;;14.40;3.40;;;;;;;8.29;nan;101043.28;5013345;28;20038;-44
2023/04/11 06:25:16;;;;;;;12.52;2.78;;;;;;;8.38;nan;101045.69;5013361;28;20045;-43
2023/04/11 06:27:41;;;;;;;11.18;2.90;;;;;;;8.52;nan;101064.66;5008515;28;20030;-42
2023/04/11 06:30:08;;;;;;;15.05;3.08;;;;;;;8.63;nan;101051.31;5020774;28;20057;-44
2023/04/11 06:32:33;;;;;;;13.25;2.95;;;;;;;8.92;nan;101051.53;5011956;28;20099;-43
2023/04/11 06:34:59;;;;;;;13.40;3.58;;;;;;;9.11;nan;101054.63;4995905;28;20034;-42
2023/04/11 06:37:24;;;;;;;13.73;2.83;;;;;;;9.00;nan;101039.97;5007301;28;20033;-45
2023/04/11 06:39:50;;;;;;;10.75;2.38;;;;;;;9.04;nan;101077.53;5007208;28;20121;-43
2023/04/11 06:42:15;;;;;;;13.25;2.58;;;;;;;8.65;nan;101026.75;5013156;28;20124;-42
2023/04/11 06:44:40;;;;;;;11.02;2.63;;;;;;;8.56;nan;101016.47;5013467;28;20041;-46
2023/04/11 06:47:06;;;;;;;14.10;2.92;;;;;;;8.90;nan;101069.94;4997488;28;20049;-44
2023/04/11 06:49:31;;;;;;;10.23;2.92;;;;;;;8.67;nan;101011.84;4993465;28;20397;-43
2023/04/11 06:51:58;;;;;;;11.70;2.50;;;;;;;9.22;nan;101092.00;5001789;28;20034;-44
2023/04/11 06:54:23;;;;;;;9.27;2.38;;;;;;;9.22;nan;101090.25;5021441;28;20044;-41
2023/04/11 06:56:52;;;;;;;12.75;2.83;;;;;;;9.16;nan;101055.38;5032709;28;20033;-41
2023/04/11 06:59:20;;;;;;;9.30;3.08;;;;;;;9.38;nan;101049.56;5017794;28;20124;-42
2023/04/11 07:01:46;;;;;;;9.80;2.45;;;;;;;10.15;nan;101102.84;5014763;28;20045;-45
2023/04/11 07:04:11;;;;;;;8.38;2.30;;;;;;;10.49;nan;101097.53;5013844;28;20485;-49
2023/04/11 07:06:36;;;;;;;13.13;2.97;;;;;;;10.35;nan;101061.97;5024623;28;20103;-46
2023/04/11 07:09:03;;;;;;;10.40;2.72;;;;;;;10.94;nan;101105.91;5002563;28;20040;-44
2023/04/11 07:11:29;;;;;;;10.85;3.10;;;;;;;11.03;nan;101094.22;5020290;28;20116;-45
2023/04/11 07:13:54;;;;;;;7.30;2.30;;;;;;;11.35;nan;101120.44;5012846;28;20133;-43
2023/04/11 07:16:20;;;;;;;13.38;3.10;;;;;;;11.49;nan;101141.97;5012504;28;20413;-44
2023/04/11 07:18:45;;;;;;;9.30;2.08;;;;;;;11.26;nan;101074.16;5009384;28;20042;-45
2023/04/11 07:21:14;;;;;;;10.80;2.25;;;;;;;11.36;nan;101087.88;4992990;28;20038;-42
2023/04/11 07:23:40;;;;;;;11.65;2.60;;;;;;;11.87;nan;101164.50;4993169;28;20073;-47
2023/04/11 07:26:07;;;;;;;9.63;2.72;;;;;;;11.89;nan;101114.31;4992872;28;20064;-45
2023/04/11 07:28:33;;;;;;;10.52;2.20;;;;;;;12.15;nan;101182.91;4990738;28;20093;-48
2023/04/11 07:30:59;;;;;;;9.63;3.08;;;;;;;11.78;nan;101126.09;4991409;28;20054;-45
2023/04/11 07:33:25;;;;;;;9.98;2.47;;;;;;;12.30;nan;101175.34;4991506;28;20038;-43
2023/04/11 07:35:50;;;;;;;13.38;3.38;;;;;;;12.05;nan;101165.69;4990739;28;20486;-45
2023/04/11 07:38:26;;;;;;;9.70;2.42;;;;;;;12.16;nan;101166.19;4990228;28;20061;-46
2023/04/11 07:40:51;;;;;;;10.25;2.63;;;;;;;11.71;nan;101166.75;4990319;28;20046;-43
2023/04/11 07:43:16;;;;;;;8.25;2.40;;;;;;;11.95;nan;101187.97;4991536;28;20042;-44
2023/04/11 07:45:42;;;;;;;10.65;2.92;;;;;;;11.99;nan;101179.06;4991525;28;20038;-48
2023/04/11 07:48:07;;;;;;;10.02;3.00;;;;;;;12.00;nan;101189.56;4994425;28;20031;-50
2023/04/11 07:50:32;;;;;;;11.90;2.70;;;;;;;11.56;nan;101185.66;4995071;28;20477;-47
2023/04/11 07:52:58;;;;;;;9.85;1.98;;;;;;;11.03;nan;101178.50;4994691;28;20455;-48
2023/04/11 07:55:23;;;;;;;10.65;2.45;;;;;;;10.74;nan;101198.59;4994926;28;20543;-45
2023/04/11 07:57:48;;;;;;;14.07;2.78;;;;;;;10.27;nan;101130.59;4995185;28;20601;-46
2023/04/11 08:00:21;;;;;;;11.48;2.28;;;;;;;11.26;nan;101191.88;4995228;28;20053;-50
2023/04/11 08:02:46;;;;;;;8.98;2.33;;;;;;;11.83;nan;101140.00;4994906;28;20039;-43
2023/04/11 08:05:12;;;;;;;6.47;2.45;;;;;;;12.27;nan;101158.75;4995211;28;20038;-45
2023/04/11 08:07:37;;;;;;;9.55;2.40;;;;;;;12.63;nan;101148.69;4994183;28;20049;-46
2023/04/11 08:10:03;;;;;;;7.45;1.80;;;;;;;12.96;nan;101211.72;5009482;28;20039;-49
2023/04/11 08:12:29;;;;;;;8.02;2.50;;;;;;;13.50;nan;101226.50;4993633;28;20052;-47
2023/04/11 08:14:54;;;;;;;10.10;2.60;;;;;;;13.71;nan;101163.97;4994954;28;20034;-48
2023/04/11 08:17:20;;;;;;;10.57;2.90;;;;;;;13.96;nan;101169.97;4994473;28;20037;-46
2023/04/11 08:19:45;;;;;;;9.38;2.38;;;;;;;14.14;nan;101240.69;4994982;28;20047;-46
2023/04/11 08:22:10;;;;;;;9.13;1.90;;;;;;;13.96;nan;101225.56;5009152;28;20485;-46
2023/04/11 08:24:36;;;;;;;7.43;1.90;;;;;;;14.00;nan;101241.25;5009551;28;20037;-45
2023/04/11 08:27:02;;;;;;;10.40;2.40;;;;;;;13.63;nan;101226.91;5010038;28;20038;-45
2023/04/11 08:29:27;;;;;;;11.68;2.90;;;;;;;13.42;nan;101237.38;5004903;28;20034;-44
2023/04/11 08:31:53;;;;;;;7.72;2.03;;;;;;;13.01;nan;101171.94;4997858;28;20120;-45
2023/04/11 08:34:18;;;;;;;9.05;2.65;;;;;;;13.92;nan;101251.25;5007229;28;20030;-46
2023/04/11 08:36:43;;;;;;;7.93;1.95;;;;;;;13.77;nan;101193.69;5014240;28;20034;-43
2023/04/11 08:39:09;;;;;;;6.15;2.03;;;;;;;13.78;nan;101197.16;4997958;28;20038;-47
2023/04/11 08:41:34;;;;;;;7.97;2.05;;;;;;;13.65;nan;101172.13;5001998;28;20041;-47
2023/04/11 08:44:00;;;;;;;10.40;2.05;;;;;;;14.74;nan;101194.88;5012252;28;20032;-45
2023/04/11 08:46:25;;;;;;;7.45;2.47;;;;;;;15.36;nan;101261.03;5009643;28;20026;-50
2023/04/11 08:48:50;;;;;;;7.30;1.70;;;;;;;15.69;nan;101259.53;4997192;28;20069;-45
2023/04/11 08:51:23;;;;;;;4.68;1.63;;;;;;;15.25;nan;101201.44;4997258;28;20469;-45
2023/04/11 08:53:52;;;;;;;5.13;1.67;;;;;;;15.19;nan;101206.09;5012075;28;20044;-47
2023/04/11 08:56:17;;;;;;;8.13;2.13;;;;;;;15.00;nan;101260.03;5012147;28;20389;-48
2023/04/11 08:58:43;;;;;;;6.20;1.60;;;;;;;15.51;nan;101252.41;5012784;28;20036;-49
2023/04/11 09:01:26;;;;;;;5.22;1.77;;;;;;;15.69;nan;101198.47;5010375;28;20101;-45
2023/04/11 09:03:52;;;;;;;4.78;1.40;;;;;;;16.08;nan;101193.00;4993955;28;20081;-47
2023/04/11 09:06:17;;;;;;;6.75;2.00;;;;;;;16.10;nan;101192.94;5009266;28;20084;-48
2023/04/11 09:08:42;;;;;;;4.90;1.85;;;;;;;16.79;nan;101258.50;5013415;28;20545;-46
2023/04/11 09:11:08;;;;;;;6.40;1.73;;;;;;;16.93;nan;101264.94;5013750;28;20049;-47
2023/04/11 09:13:33;;;;;;;4.97;1.75;;;;;;;17.25;nan;101272.91;5013232;28;20117;-46
2023/04/11 09:16:04;;;;;;;8.82;1.98;;;;;;;17.18;nan;101276.00;5013259;28;20517;-46
2023/04/11 09:18:38;;;;;;;7.03;2.33;;;;;;;16.79;nan;101213.31;5011962;28;20389;-46
2023/04/11 09:21:05;;;;;;;4.22;1.50;;;;;;;17.04;nan;101268.75;4999729;28;20595;-45
2023/04/11 09:23:31;;;;;;;6.32;1.98;;;;;;;17.66;nan;101256.56;5011880;28;20033;-46
2023/04/11 09:25:56;;;;;;;5.97;1.73;;;;;;;17.91;nan;101262.25;5003629;28;20450;-47
2023/04/11 09:28:22;;;;;;;6.82;2.05;;;;;;;17.45;nan;101264.72;4992798;28;20456;-46
2023/04/11 09:30:49;;;;;;;9.80;2.22;;;;;;;17.64;nan;101221.16;4996201;28;20053;-49
2023/04/11 09:33:20;;;;;;;5.63;1.77;;;;;;;18.06;nan;101296.03;5000655;28;20486;-46
2023/04/11 09:35:47;;;;;;;9.20;2.53;;;;;;;17.55;nan;101225.19;4993203;28;20069;-46
2023/04/11 09:38:12;;;;;;;7.57;2.13;;;;;;;17.57;nan;101241.09;4991782;28;20034;-45
2023/04/11 09:40:42;;;;;;;8.52;2.10;;;;;;;17.64;nan;101279.72;5010217;28;20132;-47
2023/04/11 09:43:07;;;;;;;5.30;1.95;;;;;;;17.59;nan;101284.47;4994871;28;20481;-44
2023/04/11 09:45:32;;;;;;;7.07;2.42;;;;;;;17.93;nan;101290.50;5006870;28;20033;-45
2023/04/11 09:47:58;;;;;;;9.30;2.25;;;;;;;18.38;nan;101291.53;5010787;28;20038;-46
2023/04/11 09:50:25;;;;;;;6.07;2.10;;;;;;;17.76;nan;101247.97;5012102;28;20037;-47
2023/04/11 09:52:55;;;;;;;3.65;1.50;;;;;;;17.26;nan;101289.75;5012337;28;20088;-46
2023/04/11 09:55:21;;;;;;;9.18;1.98;;;;;;;17.60;nan;101286.19;5012241;28;20123;-48
2023/04/11 09:57:49;;;;;;;5.35;2.00;;;;;;;18.10;nan;101230.94;5010659;28;20045;-47
2023/04/11 10:00:20;;;;;;;8.18;2.80;;;;;;;17.87;nan;101260.69;5012312;28;20171;-46
2023/04/11 10:02:48;;;;;;;9.68;2.30;;;;;;;17.58;nan;101285.38;5001984;28;20039;-46
2023/04/11 10:05:16;;;;;;;6.80;1.65;;;;;;;16.95;nan;101302.94;4991365;28;20093;-45
2023/04/11 10:08:03;;;;;;;6.88;2.08;;;;;;;17.04;nan;101286.50;4990883;28;20073;-47
2023/04/11 10:10:28;;;;;;;5.05;1.83;;;;;;;17.21;nan;101281.16;4991267;28;20034;-49
2023/04/11 10:12:54;;;;;;;7.35;2.33;;;;;;;18.14;nan;101301.78;4992562;28;20438;-48
2023/04/11 10:15:21;;;;;;;6.22;2.05;;;;;;;18.74;nan;101244.06;4992485;28;20573;-47
2023/04/11 10:18:11;;;;;;;10.38;2.35;;;;;;;18.60;nan;101276.03;5006072;28;20549;-47
2023/04/11 10:20:48;;;;;;;7.88;2.10;;;;;;;18.58;nan;101290.41;4992222;28;20026;-45
2023/04/11 10:23:14;;;;;;;8.13;2.42;;;;;;;19.36;nan;101290.94;4992317;28;20041;-46
2023/04/11 10:25:54;;;;;;;5.57;2.00;;;;;;;18.97;nan;101242.69;4991694;28;20133;-46
2023/04/11 10:28:48;;;;;;;5.18;1.98;;;;;;;19.50;nan;101271.44;4992054;28;20076;-49
2023/04/11 10:31:16;;;;;;;6.45;2.00;;;;;;;18.68;nan;101227.59;4989423;28;20050;-47
2023/04/11 10:34:11;;;;;;;7.97;2.17;;;;;;;18.90;nan;101284.03;4991439;28;20045;-46
2023/04/11 10:37:15;;;;;;;6.35;2.20;;;;;;;18.00;nan;101299.03;5010035;28;20045;-47
2023/04/11 10:39:47;;;;;;;8.05;2.05;;;;;;;17.00;nan;101303.53;5010648;28;20050;-46
2023/04/11 10:42:33;;;;;;;5.68;2.03;;;;;;;16.17;nan;101290.81;5011369;28;20034;-45
2023/04/11 10:45:26;;;;;;;6.40;1.92;;;;;;;15.79;nan;101288.28;5011558;28;20034;-45
2023/04/11 10:48:02;;;;;;;5.97;1.73;;;;;;;15.90;nan;101294.81;5011202;28;20469;-48
2023/04/11 10:50:30;;;;;;;4.57;1.88;;;;;;;16.67;nan;101291.03;5000203;28;20038;-45
2023/04/11 10:52:57;;;;;;;5.55;1.65;;;;;;;17.45;nan;101238.09;4991838;28;20105;-52
2023/04/11 10:55:25;;;;;;;7.25;2.47;;;;;;;18.79;nan;101290.00;4991329;28;20112;-45
2023/04/11 10:58:10;;;;;;;7.70;2.30;;;;;;;19.72;nan;101282.50;4991563;28;20037;-47
2023/04/11 11:00:51;;;;;;;8.65;2.60;;;;;;;19.69;nan;101239.09;5006371;28;20035;-46
2023/04/11 11:03:24;;;;;;;4.20;1.77;;;;;;;20.35;nan;101266.81;4991487;28;20042;-48
2023/04/11 11:06:08;;;;;;;5.05;1.48;;;;;;;19.85;nan;101240.69;4991601;28;20030;-48
2023/04/11 11:08:36;;;;;;;4.60;2.03;;;;;;;19.73;nan;101286.88;4991459;28;20068;-46
2023/04/11 11:11:06;;;;;;;10.45;2.55;;;;;;;19.82;nan;101285.44;4990030;28;20048;-46
2023/04/11 11:13:43;;;;;;;6.75;2.08;;;;;;;19.87;nan;101286.00;4991555;28;20409;-46
2023/04/11 11:16:13;;;;;;;5.38;1.77;;;;;;;20.11;nan;101279.94;4991480;28;20052;-44
2023/04/11 11:18:38;;;;;;;9.65;2.42;;;;;;;19.70;nan;101203.44;4991316;28;20125;-48
2023/04/11 11:21:04;;;;;;;7.85;1.67;;;;;;;20.60;nan;101224.13;5006229;28;20101;-47
2023/04/11 11:23:29;;;;;;;6.50;1.98;;;;;;;21.71;nan;101259.16;5002744;28;20048;-46
2023/04/11 11:25:56;;;;;;;4.85;1.67;;;;;;;20.91;nan;101288.88;5009451;28;20045;-45
2023/04/11 11:28:22;;;;;;;6.15;1.90;;;;;;;21.33;nan;101294.00;5011302;28;20056;-47
2023/04/11 11:30:51;;;;;;;4.60;1.77;;;;;;;;;;5009598;28;20053;-46
2023/04/11 11:33:18;;;;;;;4.35;1.92;;;;;;;21.02;nan;101283.66;5010837;28;20037;-49
2023/04/11 11:36:05;;;;;;;4.32;2.00;;;;;;;21.49;nan;101283.91;4993769;28;20040;-46
2023/04/11 11:38:31;;;;;;;7.15;2.17;;;;;;;21.23;nan;101277.72;5010617;28;20567;-47
2023/04/11 11:40:57;;;;;;;8.77;2.20;;;;;;;21.34;nan;101301.06;4994090;28;20137;-47